samedi 7 juin 2014

ALERTE SPOTTING 07/06/14 (MàJ 05h00)

764 United N78060
   dpt UA1855 06h00

32A EC-LVP Vueling (sticker Linkin Europe)
      dpt VY8007 06h55
    VY8008/VY7900  10h50/11h35
  arv VY7901  18h10

320 D-ABFK Air Berlin (sticker Fan Force One)
   AB8154/AB8155  08h40/09h10
  
320 blanc G-POWI
   U24242/U24243 09H05/09h35
  
73H OO-JFD Jetairfly (arrière fuselage Flydubai)
  JAF6449/JAF64650  10h10/14h50

763 Transaero EI-DBU
   UN555/UN556   13h15/14h50

M83 EC-LEY Swiftair (blanc)
        dpt ZI255
    ZI256/ZI256F  13h25/14h20

Manque les prévisions de certains AB/AH/AZ/BA/BE/IB/KM/TP/TU

*** Horaires en Heure Locale ***
Prévisions matinales soumises à modifications de dernières minutes.

Voir le log du mois pour la version 'définitive' de la journée: 
 http://www.airkalo.com/ORLYAVIATION/Logdumois.html

le TAF de la journée:

METAR: LFPO 070230Z 20003KT CAVOK 20/13 Q1011 NOSIG=
TAF LONG: LFPO 062300Z 0700/0806 12006KT CAVOK BECMG 0708/0710 22007KT
PROB30 TEMPO 0710/0714 SHRA SCT070TCU BECMG 0800/0803 35005KT PROB30
TEMPO 0722/0805 SHRA BKN070TCU=